createdAt,value
2022-12-11T00:04:10.596Z,7.38
2022-12-11T00:09:12.618Z,7.20
2022-12-11T00:14:15.535Z,6.97
2022-12-11T00:19:17.627Z,7.55
2022-12-11T00:24:19.901Z,7.97
2022-12-11T00:29:21.855Z,7.57
2022-12-11T00:34:23.892Z,7.20
2022-12-11T00:39:25.918Z,7.97
2022-12-11T00:44:28.081Z,7.28
2022-12-11T00:49:30.261Z,7.53
2022-12-11T00:54:32.333Z,7.45
2022-12-11T00:59:34.327Z,7.70
2022-12-11T01:04:37.269Z,6.63
2022-12-11T01:09:57.852Z,7.50
2022-12-11T01:14:59.878Z,6.95
2022-12-11T01:20:01.842Z,6.68
2022-12-11T01:25:05.682Z,6.32
2022-12-11T01:30:09.112Z,6.43
2022-12-11T01:35:13.244Z,5.80
2022-12-11T01:40:17.700Z,5.55
2022-12-11T01:45:24.628Z,5.93
2022-12-11T01:50:31.209Z,5.95
2022-12-11T01:55:34.376Z,5.18
2022-12-11T02:00:36.539Z,6.30
2022-12-11T02:05:38.959Z,5.47
2022-12-11T02:10:59.821Z,5.82
2022-12-11T02:16:19.767Z,5.20
2022-12-11T02:21:28.589Z,5.70
2022-12-11T02:26:49.508Z,5.38
2022-12-11T02:32:03.384Z,5.85
2022-12-11T02:37:09.733Z,10.90
2022-12-11T02:42:14.323Z,7.40
2022-12-11T02:47:18.447Z,6.80
2022-12-11T02:52:23.922Z,6.65
2022-12-11T02:57:37.546Z,6.65
2022-12-11T03:02:41.156Z,6.75
2022-12-11T03:07:44.874Z,6.47
2022-12-11T03:12:53.755Z,6.70
2022-12-11T03:18:17.647Z,7.45
2022-12-11T03:23:31.026Z,6.80
2022-12-11T03:28:42.415Z,12.27
2022-12-11T03:33:49.111Z,6.68
2022-12-11T03:39:06.435Z,11.95
2022-12-11T03:44:09.259Z,7.05
2022-12-11T03:49:16.863Z,7.70
2022-12-11T03:54:20.041Z,6.93
2022-12-11T03:59:22.132Z,7.47
2022-12-11T04:04:24.182Z,7.90
2022-12-11T04:09:26.214Z,7.60
2022-12-11T04:14:46.969Z,8.98
2022-12-11T04:20:07.524Z,8.95
2022-12-11T04:25:09.903Z,9.43
2022-12-11T04:30:15.438Z,9.10
2022-12-11T04:35:18.028Z,10.77
2022-12-11T04:40:20.647Z,9.02
2022-12-11T04:45:22.643Z,8.90
2022-12-11T04:50:24.850Z,9.52
2022-12-11T04:55:26.858Z,9.90
2022-12-11T05:00:28.892Z,8.93
2022-12-11T05:05:31.213Z,8.20
2022-12-11T05:10:33.345Z,8.43
2022-12-11T05:15:35.390Z,7.70
2022-12-11T05:20:37.438Z,7.55
2022-12-11T05:25:39.490Z,10.48
2022-12-11T05:30:41.454Z,8.07
2022-12-11T05:35:52.751Z,9.18
2022-12-11T05:40:59.545Z,9.20
2022-12-11T05:46:12.408Z,9.30
2022-12-11T05:51:15.699Z,7.90
2022-12-11T05:56:29.782Z,9.15
2022-12-11T06:01:38.390Z,8.95
2022-12-11T06:06:40.813Z,10.15
2022-12-11T06:11:43.075Z,9.98
2022-12-11T06:16:45.179Z,9.88
2022-12-11T06:21:48.960Z,10.77
2022-12-11T06:26:51.107Z,10.27
2022-12-11T06:31:53.143Z,11.07
2022-12-11T06:36:55.208Z,11.38
2022-12-11T06:41:57.233Z,10.48
2022-12-11T06:46:59.446Z,10.90
2022-12-11T06:52:01.439Z,10.85
2022-12-11T06:57:03.569Z,11.60
2022-12-11T07:02:05.673Z,11.57
2022-12-11T07:07:09.097Z,11.55
2022-12-11T07:12:11.157Z,10.43
2022-12-11T07:17:13.194Z,10.27
2022-12-11T07:22:15.297Z,9.98
2022-12-11T07:27:17.416Z,10.50
2022-12-11T07:32:19.525Z,11.07
2022-12-11T07:37:21.612Z,11.48
2022-12-11T07:42:23.885Z,9.93
2022-12-11T07:47:25.879Z,10.27
2022-12-11T07:52:28.872Z,11.48
2022-12-11T07:57:30.903Z,10.88
2022-12-11T08:02:37.169Z,10.20
2022-12-11T08:07:39.880Z,9.82
2022-12-11T08:12:41.908Z,10.45
2022-12-11T08:17:43.925Z,10.13
2022-12-11T08:22:45.990Z,10.23
2022-12-11T08:27:49.038Z,10.80
2022-12-11T08:32:51.071Z,11.00
2022-12-11T08:37:53.027Z,11.13
2022-12-11T08:42:54.993Z,10.98
2022-12-11T08:47:59.204Z,11.63
2022-12-11T08:53:01.325Z,11.65
2022-12-11T08:58:03.879Z,11.25
2022-12-11T09:03:11.204Z,10.25
2022-12-11T09:08:14.966Z,11.07
2022-12-11T09:13:17.087Z,10.55
2022-12-11T09:18:19.083Z,11.02
2022-12-11T09:23:21.020Z,11.82
2022-12-11T09:28:23.281Z,11.55
2022-12-11T09:33:25.363Z,11.05
2022-12-11T09:38:27.723Z,10.73
2022-12-11T09:43:47.316Z,10.15
2022-12-11T09:48:49.858Z,10.82
2022-12-11T09:53:52.835Z,11.27
2022-12-11T09:59:28.957Z,10.55
2022-12-11T10:05:01.599Z,11.65
2022-12-11T10:10:38.893Z,10.23
2022-12-11T10:15:50.945Z,9.88
2022-12-11T10:20:54.395Z,11.05
2022-12-11T10:26:07.577Z,9.93
2022-12-11T10:31:15.372Z,9.38
2022-12-11T10:36:29.368Z,9.90
2022-12-11T10:41:39.198Z,9.88
2022-12-11T10:46:41.317Z,9.82
2022-12-11T10:51:43.674Z,9.13
2022-12-11T10:56:48.576Z,9.50
2022-12-11T11:01:50.875Z,8.63
2022-12-11T11:07:31.469Z,8.57
2022-12-11T11:12:45.331Z,8.30
2022-12-11T11:17:54.979Z,8.70
2022-12-11T11:23:01.792Z,8.70
2022-12-11T11:28:16.539Z,9.07
2022-12-11T11:33:21.139Z,8.35
2022-12-11T11:38:28.294Z,9.02
2022-12-11T11:43:38.099Z,9.52
2022-12-11T11:48:40.049Z,8.32
2022-12-11T11:53:47.335Z,9.77
2022-12-11T11:59:08.572Z,11.80
2022-12-11T12:04:11.695Z,8.67
2022-12-11T12:09:51.800Z,9.30
2022-12-11T12:14:59.607Z,10.30
2022-12-11T12:20:16.969Z,10.60
2022-12-11T12:25:31.158Z,7.80
2022-12-11T12:30:43.139Z,8.63
2022-12-11T12:36:12.670Z,7.68
2022-12-11T12:41:36.651Z,7.60
2022-12-11T12:47:03.320Z,7.20
2022-12-11T12:52:10.939Z,6.90
2022-12-11T12:57:13.058Z,7.78
2022-12-11T13:02:17.517Z,7.03
2022-12-11T13:07:30.201Z,7.35
2022-12-11T13:12:40.856Z,8.20
2022-12-11T13:17:42.826Z,8.25
2022-12-11T13:23:05.980Z,7.53
2022-12-11T13:28:22.176Z,10.27
2022-12-11T13:33:24.351Z,8.35
2022-12-11T13:38:26.353Z,7.22
2022-12-11T13:43:31.109Z,7.30
2022-12-11T13:48:37.955Z,8.10
2022-12-11T13:53:39.918Z,7.82
2022-12-11T13:58:42.033Z,7.53
2022-12-11T14:03:54.986Z,7.25
2022-12-11T14:09:00.222Z,7.95
2022-12-11T14:14:04.908Z,7.60
2022-12-11T14:19:09.858Z,7.22
2022-12-11T14:24:14.337Z,7.38
2022-12-11T14:29:33.200Z,7.72
2022-12-11T14:34:45.596Z,10.35
2022-12-11T14:39:57.243Z,6.60
2022-12-11T14:45:13.827Z,9.90
2022-12-11T14:50:23.819Z,6.70
2022-12-11T14:55:29.659Z,5.68
2022-12-11T15:00:37.125Z,6.18
2022-12-11T15:05:58.075Z,5.47
2022-12-11T15:11:06.250Z,6.80
2022-12-11T15:16:08.608Z,6.75
2022-12-11T15:21:12.772Z,5.85
2022-12-11T15:26:14.869Z,6.05
2022-12-11T15:31:25.421Z,7.38
2022-12-11T15:36:30.367Z,6.38
2022-12-11T15:41:34.785Z,6.18
2022-12-11T15:46:37.942Z,5.45
2022-12-11T15:51:43.196Z,6.05
2022-12-11T15:56:45.528Z,5.15
2022-12-11T16:01:47.586Z,5.72
2022-12-11T16:06:49.848Z,5.68
2022-12-11T16:11:51.837Z,5.68
2022-12-11T16:16:53.816Z,6.38
2022-12-11T16:21:55.801Z,6.82
2022-12-11T16:26:58.145Z,5.78
2022-12-11T16:32:00.148Z,5.85
2022-12-11T16:37:02.390Z,5.30
2022-12-11T16:42:06.084Z,5.15
2022-12-11T16:47:08.102Z,5.05
2022-12-11T16:52:10.783Z,4.55
2022-12-11T16:57:12.758Z,4.40
2022-12-11T17:02:14.828Z,4.40
2022-12-11T17:07:16.929Z,4.25
2022-12-11T17:12:19.049Z,3.92
2022-12-11T17:17:21.279Z,3.40
2022-12-11T17:22:23.306Z,2.10
2022-12-11T17:27:25.348Z,3.05
2022-12-11T17:32:27.344Z,2.25
2022-12-11T17:37:29.526Z,2.60
2022-12-11T17:42:31.555Z,2.30
2022-12-11T17:47:33.558Z,2.60
2022-12-11T17:52:42.511Z,2.38
2022-12-11T17:57:46.071Z,2.10
2022-12-11T18:02:49.140Z,2.05
2022-12-11T18:07:57.300Z,2.00
2022-12-11T18:13:00.557Z,1.70
2022-12-11T18:18:02.528Z,1.50
2022-12-11T18:28:06.961Z,1.80
2022-12-11T18:33:08.966Z,1.40
2022-12-11T18:38:10.968Z,2.65
2022-12-11T18:43:13.450Z,1.77
2022-12-11T18:48:15.484Z,0.90
2022-12-11T18:53:18.890Z,0.90
2022-12-11T18:58:21.084Z,0.68
2022-12-11T19:03:23.150Z,0.88
2022-12-11T19:08:25.305Z,0.90
2022-12-11T19:13:27.409Z,0.70
2022-12-11T19:18:29.493Z,0.90
2022-12-11T19:23:31.866Z,1.27
2022-12-11T19:28:34.524Z,1.10
2022-12-11T19:33:36.960Z,1.20
2022-12-11T19:38:41.051Z,1.02
2022-12-11T19:43:43.481Z,0.77
2022-12-11T19:48:46.077Z,1.10
2022-12-11T19:53:48.392Z,1.00
2022-12-11T19:58:50.398Z,1.30
2022-12-11T20:03:53.662Z,0.77
2022-12-11T20:08:55.692Z,0.60
2022-12-11T20:13:57.790Z,0.93
2022-12-11T20:18:59.758Z,0.50
2022-12-11T20:24:01.761Z,0.55
2022-12-11T20:29:07.434Z,0.70
2022-12-11T20:34:09.446Z,0.80
2022-12-11T20:39:11.678Z,1.00
2022-12-11T20:44:13.660Z,0.70
2022-12-11T20:49:15.646Z,0.80
2022-12-11T20:54:17.634Z,1.00
2022-12-11T20:59:19.784Z,1.10
2022-12-11T21:04:22.458Z,1.50
2022-12-11T21:09:26.567Z,1.48
2022-12-11T21:14:30.238Z,1.40
2022-12-11T21:19:32.442Z,2.42
2022-12-11T21:24:34.491Z,2.15
2022-12-11T21:29:36.542Z,3.03
2022-12-11T21:34:38.645Z,3.45
2022-12-11T21:39:40.716Z,2.92
2022-12-11T21:50:05.683Z,3.45
2022-12-11T21:55:08.118Z,7.55
2022-12-11T22:00:10.683Z,5.43
2022-12-11T22:05:16.122Z,6.57
2022-12-11T22:10:18.311Z,8.02
2022-12-11T22:15:20.319Z,8.80
2022-12-11T22:20:22.412Z,8.55
2022-12-11T22:25:24.796Z,8.43
2022-12-11T22:30:26.875Z,11.57
2022-12-11T22:35:29.045Z,6.70
2022-12-11T22:40:31.142Z,10.48
2022-12-11T22:45:33.595Z,13.93
2022-12-11T22:50:37.794Z,13.57
2022-12-11T22:55:40.118Z,16.38
2022-12-11T23:00:42.187Z,15.50
2022-12-11T23:05:44.264Z,12.95
2022-12-11T23:10:46.481Z,10.45
2022-12-11T23:15:48.515Z,10.60
2022-12-11T23:20:50.773Z,15.98
2022-12-11T23:25:53.326Z,15.10
2022-12-11T23:30:55.457Z,14.80
2022-12-11T23:35:58.228Z,12.80
2022-12-11T23:41:02.493Z,14.32
2022-12-11T23:46:07.221Z,13.95
2022-12-11T23:51:13.127Z,15.05
2022-12-11T23:56:25.436Z,14.50
